Time;durP1;ratioP1;P1;durP2;ratioP2;P2;SDS_P1;SDS_P2;PMS_P1;PMS_P2;Temp;Humidity;BMP_temperature;BMP_pressure;BME280_temperature;BME280_humidity;BME280_pressure;Samples;Min_cycle;Max_cycle;Signal;HPM_P1;HPM_P2
2022/09/18 00:00:09;;;;;;;3.38;1.38;;;;;;;13.02;79.71;99383.31;2062978;28;20506;-73
2022/09/18 00:01:17;;;;;;;4.05;1.30;;;;;;;13.01;79.65;99384.41;2055662;28;20042;-73
2022/09/18 00:02:20;;;;;;;3.92;1.45;;;;;;;12.99;79.50;99384.75;2040342;29;20039;-74
2022/09/18 00:03:27;;;;;;;6.60;1.50;;;;;;;12.99;79.59;99381.25;2048619;28;20367;-75
2022/09/18 00:04:29;;;;;;;2.75;1.52;;;;;;;13.01;79.70;99378.22;2047646;28;20041;-75
2022/09/18 00:05:34;;;;;;;3.35;2.00;;;;;;;13.02;79.64;99377.94;2040264;28;20036;-74
2022/09/18 00:06:41;;;;;;;6.55;1.45;;;;;;;13.02;79.56;99377.94;2055541;28;20034;-76
2022/09/18 00:07:43;;;;;;;2.85;1.40;;;;;;;13.02;79.64;99377.94;2055811;28;20042;-75
2022/09/18 00:08:45;;;;;;;3.55;1.42;;;;;;;13.01;79.60;99370.94;2055771;28;20517;-75
2022/09/18 00:09:50;;;;;;;4.20;1.42;;;;;;;13.03;79.73;99365.22;2047706;29;20110;-75
2022/09/18 00:11:07;;;;;;;3.80;1.80;;;;;;;13.02;79.75;99366.31;2049869;28;20492;-75
2022/09/18 00:12:12;;;;;;;3.75;1.30;;;;;;;13.01;79.85;99368.22;2061713;28;20037;-73
2022/09/18 00:13:17;;;;;;;7.68;1.58;;;;;;;13.02;79.90;99366.31;2055557;28;20035;-75
2022/09/18 00:14:22;;;;;;;5.20;1.60;;;;;;;13.01;79.76;99360.13;2056574;28;20034;-74
2022/09/18 00:15:25;;;;;;;3.75;1.67;;;;;;;12.98;79.84;99356.16;2061884;28;20042;-74
2022/09/18 00:16:27;;;;;;;5.88;1.77;;;;;;;13.00;79.97;99350.47;2063811;28;20039;-74
2022/09/18 00:17:32;;;;;;;4.95;1.55;;;;;;;13.01;80.07;99354.72;2063053;28;20042;-75
2022/09/18 00:18:39;;;;;;;6.68;1.70;;;;;;;12.99;79.92;99359.69;2055606;28;20055;-75
2022/09/18 00:19:49;;;;;;;4.00;1.50;;;;;;;12.98;79.87;99358.06;2055696;28;20034;-75
2022/09/18 00:20:53;;;;;;;8.38;1.85;;;;;;;12.97;80.05;99360.00;2073653;28;20036;-75
2022/09/18 00:22:03;;;;;;;2.90;1.48;;;;;;;12.95;79.87;99362.22;2065093;28;20049;-73
2022/09/18 00:23:12;;;;;;;4.28;1.27;;;;;;;12.95;79.85;99356.81;2063672;28;20545;-73
2022/09/18 00:24:17;;;;;;;5.18;1.42;;;;;;;12.95;80.05;99356.81;2063674;28;20042;-74
2022/09/18 00:25:22;;;;;;;2.08;1.38;;;;;;;12.95;79.89;99356.81;2056154;28;20054;-74
2022/09/18 00:26:29;;;;;;;4.43;1.60;;;;;;;12.95;80.09;99356.03;2055716;28;20085;-74
2022/09/18 00:27:32;;;;;;;2.58;1.40;;;;;;;12.94;80.01;99357.94;2058166;28;20541;-74
2022/09/18 00:28:40;;;;;;;4.22;1.58;;;;;;;12.95;80.02;99356.03;2072511;28;20075;-74
2022/09/18 00:29:48;;;;;;;4.97;1.70;;;;;;;12.95;79.69;99353.31;2071651;28;20064;-74
2022/09/18 00:30:55;;;;;;;5.50;1.52;;;;;;;12.97;80.07;99361.91;2072112;28;20072;-74
2022/09/18 00:31:58;;;;;;;2.92;1.60;;;;;;;12.94;79.94;99351.75;2060453;28;20041;-74
2022/09/18 00:33:03;;;;;;;3.63;1.48;;;;;;;12.92;80.00;99352.06;2055734;28;20542;-74
2022/09/18 00:34:09;;;;;;;4.72;1.35;;;;;;;12.93;80.24;99348.28;2055319;28;20039;-74
2022/09/18 00:35:22;;;;;;;4.68;2.20;;;;;;;12.94;79.94;99351.75;2059585;28;20124;-74
2022/09/18 00:36:23;;;;;;;;;;;;;;;12.94;80.09;99354.44;2067424;28;20050;-74
2022/09/18 00:37:32;;;;;;;3.42;1.80;;;;;;;12.92;80.13;99353.97;2047764;29;20393;-75
2022/09/18 00:38:36;;;;;;;3.97;1.77;;;;;;;12.92;80.04;99356.66;2033910;29;20089;-74
2022/09/18 00:39:41;;;;;;;4.53;1.50;;;;;;;12.91;80.30;99355.88;2040901;28;20043;-74
2022/09/18 00:40:43;;;;;;;3.17;1.65;;;;;;;12.93;80.15;99363.66;2047822;28;20043;-74
2022/09/18 00:41:45;;;;;;;1.95;1.48;;;;;;;12.93;80.00;99369.06;2047789;28;20050;-74
2022/09/18 00:42:50;;;;;;;6.07;1.50;;;;;;;12.93;80.33;99358.28;2059407;28;20045;-74
2022/09/18 00:43:53;;;;;;;5.45;1.48;;;;;;;12.91;80.03;99363.97;2047877;28;20042;-75
2022/09/18 00:44:59;;;;;;;2.97;1.48;;;;;;;12.91;80.14;99365.88;2048191;28;20039;-74
2022/09/18 00:46:21;;;;;;;3.00;1.20;;;;;;;12.89;80.23;99358.13;2048916;28;20069;-73
2022/09/18 00:47:28;;;;;;;2.47;1.50;;;;;;;12.89;80.20;99357.31;2057698;28;20379;-72
2022/09/18 00:48:43;;;;;;;2.08;1.20;;;;;;;12.88;80.22;99356.53;2055933;28;20050;-75
2022/09/18 00:50:22;;;;;;;2.92;1.38;;;;;;;12.89;80.21;99357.31;2058075;28;20066;-74
2022/09/18 00:51:27;;;;;;;3.45;1.45;;;;;;;12.88;80.29;99355.75;2048864;28;20058;-74
2022/09/18 00:52:36;;;;;;;4.65;1.33;;;;;;;12.88;80.07;99355.75;2056180;28;20426;-75
2022/09/18 00:53:48;;;;;;;3.17;1.50;;;;;;;12.87;80.29;99357.66;2071800;28;20038;-75
2022/09/18 00:54:57;;;;;;;3.08;1.35;;;;;;;12.87;80.31;99356.88;2060385;28;20046;-75
2022/09/18 00:56:13;;;;;;;4.93;1.20;;;;;;;12.84;80.22;99355.59;2055680;28;20051;-76
2022/09/18 00:57:20;;;;;;;3.75;1.50;;;;;;;12.84;80.32;99355.59;2064011;28;20505;-76
2022/09/18 00:58:27;;;;;;;3.00;1.33;;;;;;;12.85;80.46;99356.38;2055215;28;20062;-76
2022/09/18 00:59:34;;;;;;;1.90;1.33;;;;;;;12.84;80.37;99352.13;2040752;29;20082;-75
2022/09/18 01:00:42;;;;;;;5.05;1.75;;;;;;;12.84;80.36;99354.81;2049138;28;20447;-75
2022/09/18 01:01:44;;;;;;;3.40;1.20;;;;;;;12.83;80.45;99347.81;2062694;28;20437;-73
2022/09/18 01:02:52;;;;;;;4.78;1.40;;;;;;;12.84;80.14;99347.50;2063352;28;20030;-74
2022/09/18 01:03:55;;;;;;;1.25;1.00;;;;;;;12.85;80.22;99351.00;2055703;28;20519;-73
2022/09/18 01:05:01;;;;;;;2.58;1.30;;;;;;;12.84;80.51;99349.41;2048828;28;20042;-73
2022/09/18 01:06:12;;;;;;;2.97;1.15;;;;;;;12.83;80.60;99342.41;2058385;28;20130;-73
2022/09/18 01:07:33;;;;;;;3.42;1.33;;;;;;;12.83;80.41;99340.53;2064062;28;20054;-73
2022/09/18 01:08:54;;;;;;;3.90;1.20;;;;;;;12.83;80.66;99345.13;2067504;28;20042;-72
2022/09/18 01:10:25;;;;;;;2.05;1.00;;;;;;;12.82;80.45;99344.34;2062391;28;20034;-72
2022/09/18 01:11:48;;;;;;;1.42;1.02;;;;;;;12.80;80.83;99343.06;2057905;28;20065;-72
2022/09/18 01:12:53;;;;;;;2.33;1.40;;;;;;;12.79;80.65;99342.28;2067512;28;20034;-71
2022/09/18 01:14:10;;;;;;;6.90;1.17;;;;;;;12.77;80.93;99333.75;2064679;28;20038;-71
2022/09/18 01:15:40;;;;;;;5.95;1.30;;;;;;;12.78;80.87;99332.63;2058966;28;20039;-72
2022/09/18 01:17:24;;;;;;;4.57;1.08;;;;;;;12.79;80.91;99341.50;2064709;28;20046;-72
2022/09/18 01:18:32;;;;;;;3.28;1.10;;;;;;;12.78;80.94;99339.91;2063966;28;20042;-72
2022/09/18 01:19:44;;;;;;;3.03;1.15;;;;;;;12.70;80.96;99328.84;2058282;28;20039;-72
2022/09/18 01:21:03;;;;;;;5.10;1.02;;;;;;;12.66;80.94;99332.50;2057449;28;20038;-72
2022/09/18 01:22:46;;;;;;;3.50;1.20;;;;;;;12.64;81.37;99335.53;2043552;28;20066;-73
2022/09/18 01:24:11;;;;;;;5.28;1.25;;;;;;;12.66;81.39;99327.88;2054881;28;20050;-73
2022/09/18 01:25:53;;;;;;;3.28;1.10;;;;;;;12.66;81.44;99324.41;2051791;28;20683;-73
2022/09/18 01:27:09;;;;;;;2.88;1.20;;;;;;;12.66;81.58;99332.50;2057829;28;20038;-75
2022/09/18 01:28:26;;;;;;;3.78;1.08;;;;;;;12.66;81.49;99333.28;2067023;28;20050;-74
2022/09/18 01:29:44;;;;;;;3.63;1.17;;;;;;;12.63;81.58;99327.75;2064924;28;20042;-75
2022/09/18 01:30:52;;;;;;;3.65;1.10;;;;;;;12.63;81.67;99331.22;2059085;28;20042;-75
2022/09/18 01:32:03;;;;;;;1.92;1.25;;;;;;;12.64;81.65;99340.09;2054618;28;20038;-74
2022/09/18 01:33:27;;;;;;;2.75;1.35;;;;;;;12.60;81.71;99334.56;2058722;28;20069;-75
2022/09/18 01:34:57;;;;;;;4.18;1.23;;;;;;;12.64;81.92;99329.31;2048956;28;20050;-74
2022/09/18 01:36:06;;;;;;;2.58;1.17;;;;;;;12.64;81.79;99330.13;2052499;28;20038;-72
2022/09/18 01:37:34;;;;;;;3.88;1.30;;;;;;;12.62;81.99;99326.97;2049556;28;20039;-73
2022/09/18 01:38:58;;;;;;;3.65;1.33;;;;;;;12.59;82.13;99322.19;2060831;28;20438;-72
2022/09/18 01:40:11;;;;;;;4.70;1.58;;;;;;;12.61;82.03;99330.78;2059924;28;20050;-72
2022/09/18 01:41:34;;;;;;;2.58;1.02;;;;;;;12.61;82.08;99325.38;2058183;28;20049;-72
2022/09/18 01:42:41;;;;;;;2.63;1.40;;;;;;;12.63;82.12;99328.53;2059137;28;20437;-73
2022/09/18 01:43:44;;;;;;;4.35;1.25;;;;;;;12.63;81.92;99333.91;2048971;28;20427;-72
2022/09/18 01:44:56;;;;;;;2.40;1.42;;;;;;;12.61;82.02;99328.06;2050225;28;20050;-73
2022/09/18 01:46:07;;;;;;;3.38;1.52;;;;;;;12.63;82.03;99328.53;2057682;28;20034;-72
2022/09/18 01:47:18;;;;;;;3.00;1.40;;;;;;;12.64;82.01;99334.72;2058070;28;20411;-73
2022/09/18 01:48:27;;;;;;;2.40;1.30;;;;;;;12.63;82.21;99333.91;2058391;28;20035;-71
2022/09/18 01:49:38;;;;;;;4.57;1.38;;;;;;;12.64;82.17;99324.75;2064991;28;20046;-74
2022/09/18 01:50:51;;;;;;;5.43;1.50;;;;;;;12.64;82.08;99330.13;2072534;28;20038;-73
2022/09/18 01:52:20;;;;;;;5.10;1.55;;;;;;;12.64;82.06;99330.13;2071339;28;20532;-74
2022/09/18 01:53:55;;;;;;;3.90;1.33;;;;;;;12.63;82.00;99325.84;2054975;28;20055;-75
2022/09/18 01:55:08;;;;;;;4.97;1.50;;;;;;;12.61;82.13;99325.38;2053494;28;20159;-74
2022/09/18 01:56:23;;;;;;;4.70;1.48;;;;;;;12.61;81.96;99324.56;2048424;29;20051;-75
2022/09/18 01:57:42;;;;;;;1.80;1.42;;;;;;;12.60;82.16;99326.47;2035792;28;20047;-74
2022/09/18 01:58:50;;;;;;;2.92;1.20;;;;;;;12.54;82.29;99325.06;2052088;28;20031;-74
2022/09/18 02:00:07;;;;;;;3.55;1.30;;;;;;;12.54;82.30;99316.97;2050071;28;20039;-74
2022/09/18 02:01:19;;;;;;;;;;;;;;;12.55;82.49;99331.25;2058383;28;20058;-74
2022/09/18 02:02:40;;;;;;;3.03;1.52;;;;;;;12.53;82.47;99324.28;2064470;28;20693;-74
2022/09/18 02:03:52;;;;;;;5.63;1.70;;;;;;;12.55;82.65;99331.25;2067105;28;20046;-73
2022/09/18 02:05:01;;;;;;;3.28;1.50;;;;;;;12.56;82.69;99322.06;2048611;28;20086;-72
2022/09/18 02:06:21;;;;;;;2.10;1.33;;;;;;;12.58;82.60;99331.41;2044516;28;20468;-73
2022/09/18 02:07:34;;;;;;;5.05;1.75;;;;;;;12.55;82.59;99332.06;2058971;28;20043;-73
2022/09/18 02:08:44;;;;;;;2.10;1.30;;;;;;;12.57;82.58;99329.03;2056426;28;20046;-73
2022/09/18 02:09:50;;;;;;;8.48;1.77;;;;;;;12.56;82.65;99330.94;2057910;28;20049;-73
2022/09/18 02:11:00;;;;;;;2.72;1.67;;;;;;;12.57;82.54;99331.72;2064536;28;20030;-73
2022/09/18 02:12:10;;;;;;;3.92;1.50;;;;;;;12.59;82.55;99333.00;2064530;28;20478;-73
2022/09/18 02:13:23;;;;;;;2.17;1.40;;;;;;;12.59;82.61;99329.50;2064535;28;20523;-74
2022/09/18 02:14:41;;;;;;;4.70;1.50;;;;;;;12.58;82.55;99323.31;2058101;28;20459;-73
2022/09/18 02:16:12;;;;;;;3.95;1.58;;;;;;;12.58;82.41;99331.41;2052281;28;20046;-74
2022/09/18 02:17:44;;;;;;;3.30;1.30;;;;;;;12.60;82.41;99339.16;2056401;28;20042;-74
2022/09/18 02:18:58;;;;;;;2.63;1.52;;;;;;;12.60;82.32;99329.16;2050396;28;20134;-73
2022/09/18 02:20:09;;;;;;;2.50;1.55;;;;;;;12.59;82.36;99329.50;2058871;28;20517;-74
2022/09/18 02:21:15;;;;;;;5.47;1.63;;;;;;;12.59;82.41;99330.28;2065807;28;20525;-74
2022/09/18 02:22:23;;;;;;;2.67;1.60;;;;;;;12.58;82.32;99323.31;2065064;28;20042;-74
2022/09/18 02:23:29;;;;;;;3.88;1.50;;;;;;;12.58;82.43;99326.03;2073180;28;20128;-74
2022/09/18 02:24:36;;;;;;;3.05;1.40;;;;;;;12.54;82.35;99322.38;2056543;28;20419;-73
2022/09/18 02:25:56;;;;;;;3.25;1.70;;;;;;;12.54;82.44;99319.66;2050382;28;20051;-74
2022/09/18 02:27:02;;;;;;;3.08;1.40;;;;;;;12.55;82.59;99326.66;2058801;28;20487;-73
2022/09/18 02:28:07;;;;;;;1.73;1.50;;;;;;;12.55;82.71;99326.66;2057021;28;20074;-73
2022/09/18 02:29:16;;;;;;;3.58;1.33;;;;;;;12.56;82.65;99322.06;2048397;28;20035;-73
2022/09/18 02:30:24;;;;;;;3.97;1.50;;;;;;;12.57;82.61;99324.41;2049845;28;20439;-74
2022/09/18 02:31:29;;;;;;;2.40;1.50;;;;;;;12.59;82.52;99332.19;2039653;28;20052;-73
2022/09/18 02:32:39;;;;;;;5.57;1.60;;;;;;;12.59;82.69;99330.28;2052513;28;20035;-74
2022/09/18 02:33:43;;;;;;;1.75;1.40;;;;;;;12.58;82.50;99328.72;2056897;28;20039;-74
2022/09/18 02:34:48;;;;;;;4.07;1.60;;;;;;;12.58;82.50;99331.41;2048346;28;20038;-74
2022/09/18 02:35:57;;;;;;;2.88;1.77;;;;;;;12.58;82.65;99326.03;2041243;29;20040;-74
2022/09/18 02:37:31;;;;;;;4.90;1.83;;;;;;;12.59;82.42;99332.19;2050072;28;20039;-74
2022/09/18 02:39:02;;;;;;;3.63;1.83;;;;;;;12.58;82.57;99328.72;2056655;28;20039;-74
2022/09/18 02:40:18;;;;;;;5.57;1.88;;;;;;;12.57;82.51;99324.41;2039568;29;20051;-74
2022/09/18 02:41:31;;;;;;;4.60;1.73;;;;;;;12.59;82.48;99324.13;2052220;28;20055;-73
2022/09/18 02:42:50;;;;;;;3.42;1.40;;;;;;;12.59;82.54;99324.91;2057635;28;20049;-74
2022/09/18 02:44:10;;;;;;;3.90;1.45;;;;;;;12.56;82.46;99320.16;2056243;28;20575;-74
2022/09/18 02:45:40;;;;;;;2.20;1.50;;;;;;;12.58;82.50;99323.31;2050683;28;20041;-73
2022/09/18 02:46:55;;;;;;;3.88;1.58;;;;;;;12.56;82.65;99320.16;2060551;28;20030;-73
2022/09/18 02:48:12;;;;;;;2.75;1.33;;;;;;;12.56;82.52;99322.84;2062362;28;20042;-74
2022/09/18 02:49:43;;;;;;;3.80;1.60;;;;;;;12.57;82.42;99327.13;2048232;29;20396;-73
2022/09/18 02:51:19;;;;;;;2.22;1.45;;;;;;;12.56;82.36;99325.53;2045888;28;20472;-75
2022/09/18 02:52:22;;;;;;;4.03;1.73;;;;;;;12.56;82.50;99322.84;2046220;28;20689;-75
2022/09/18 02:53:39;;;;;;;1.85;1.35;;;;;;;12.55;82.55;99326.66;2063661;28;20045;-75
2022/09/18 02:54:48;;;;;;;3.00;1.50;;;;;;;12.55;82.30;99326.66;2056879;28;20150;-74
2022/09/18 02:56:02;;;;;;;4.68;1.50;;;;;;;12.55;82.34;99325.84;2049394;28;20478;-74
2022/09/18 02:57:15;;;;;;;2.92;1.38;;;;;;;12.54;82.29;99322.38;2049927;28;20047;-74
2022/09/18 02:58:36;;;;;;;2.88;1.60;;;;;;;12.52;82.18;99330.78;2047959;28;20039;-75
2022/09/18 02:59:45;;;;;;;6.15;1.95;;;;;;;12.52;82.33;99332.69;2050609;28;20514;-74
2022/09/18 03:00:50;;;;;;;3.85;1.60;;;;;;;12.51;82.33;99326.53;2057596;28;20031;-74
2022/09/18 03:01:59;;;;;;;2.05;1.48;;;;;;;12.52;82.17;99327.31;2047932;28;20031;-74
2022/09/18 03:03:04;;;;;;;3.35;1.50;;;;;;;12.51;82.31;99328.41;2042116;28;20043;-74
2022/09/18 03:04:25;;;;;;;4.68;2.25;;;;;;;12.48;82.11;99326.34;2050217;28;20443;-73
2022/09/18 03:05:50;;;;;;;2.60;1.73;;;;;;;12.49;82.12;99327.94;2055881;28;20057;-74
2022/09/18 03:06:56;;;;;;;3.58;1.67;;;;;;;12.48;82.12;99332.56;2063911;28;20030;-73
2022/09/18 03:07:59;;;;;;;2.83;1.42;;;;;;;12.47;82.10;99325.56;2048065;29;20041;-74
2022/09/18 03:09:03;;;;;;;4.43;1.45;;;;;;;12.48;82.17;99323.66;2048124;28;20554;-74
2022/09/18 03:10:12;;;;;;;2.45;1.80;;;;;;;12.48;82.11;99327.16;2055990;28;20038;-73
2022/09/18 03:11:17;;;;;;;2.97;1.48;;;;;;;12.48;82.04;99327.16;2057040;28;20038;-73
2022/09/18 03:12:19;;;;;;;2.55;1.70;;;;;;;12.48;81.92;99326.34;2056139;28;20039;-74
2022/09/18 03:13:26;;;;;;;2.85;1.45;;;;;;;12.48;82.22;99329.03;2048006;28;20043;-73
2022/09/18 03:14:28;;;;;;;2.70;1.50;;;;;;;12.48;82.14;99332.56;2048070;28;20038;-74
2022/09/18 03:15:31;;;;;;;3.20;1.60;;;;;;;12.49;82.15;99330.66;2040368;29;20047;-75
2022/09/18 03:16:35;;;;;;;4.18;1.80;;;;;;;12.49;82.11;99325.25;2048636;28;20039;-75
2022/09/18 03:17:40;;;;;;;3.92;1.90;;;;;;;12.49;82.15;99325.25;2064198;28;20114;-74
2022/09/18 03:18:51;;;;;;;3.38;1.92;;;;;;;12.49;82.08;99322.56;2065342;28;20437;-73
2022/09/18 03:19:54;;;;;;;5.57;1.65;;;;;;;12.50;82.13;99329.53;2063199;28;20050;-73
2022/09/18 03:20:58;;;;;;;2.75;1.70;;;;;;;12.50;82.14;99324.91;2056974;28;20031;-73
2022/09/18 03:22:05;;;;;;;3.38;1.60;;;;;;;12.49;82.26;99322.56;2064223;28;20038;-73
2022/09/18 03:23:12;;;;;;;;;;;;;;;12.50;82.10;99318.75;2065635;28;20061;-73
2022/09/18 03:24:19;;;;;;;4.95;1.70;;;;;;;12.47;82.06;99322.06;2059387;28;19917;-74
2022/09/18 03:25:28;;;;;;;5.03;2.05;;;;;;;12.46;82.16;99321.28;2064413;28;20057;-75
2022/09/18 03:26:32;;;;;;;2.97;1.80;;;;;;;12.47;82.36;99325.56;2055719;28;20046;-75
2022/09/18 03:27:35;;;;;;;3.47;1.65;;;;;;;12.47;82.22;99325.56;2040838;28;20039;-76
2022/09/18 03:28:37;;;;;;;6.90;1.92;;;;;;;12.48;82.48;99320.97;2048595;28;20047;-74
2022/09/18 03:29:44;;;;;;;1.90;1.40;;;;;;;12.48;82.21;99326.34;2055885;28;20027;-74
2022/09/18 03:30:48;;;;;;;4.53;2.20;;;;;;;12.48;82.38;99323.66;2056669;28;20038;-74
2022/09/18 03:31:53;;;;;;;2.88;1.70;;;;;;;12.48;82.26;99331.75;2061857;28;20050;-74
2022/09/18 03:33:00;;;;;;;5.35;2.00;;;;;;;12.46;82.32;99324.00;2057165;28;20043;-75
2022/09/18 03:34:06;;;;;;;3.38;2.03;;;;;;;12.47;82.29;99328.25;2056318;28;20055;-75
2022/09/18 03:35:16;;;;;;;4.13;1.77;;;;;;;12.48;82.39;99331.75;2054047;28;21023;-75
2022/09/18 03:36:19;;;;;;;2.97;1.80;;;;;;;12.47;82.28;99328.25;2047779;29;20050;-75
2022/09/18 03:37:24;;;;;;;2.53;1.70;;;;;;;12.49;82.39;99334.13;2048122;28;20039;-74
2022/09/18 03:38:31;;;;;;;4.10;1.70;;;;;;;12.50;82.46;99332.22;2055695;28;20101;-75
2022/09/18 03:39:39;;;;;;;2.38;1.63;;;;;;;12.43;82.79;99332.72;2064136;28;20050;-75
2022/09/18 03:40:50;;;;;;;4.50;2.00;;;;;;;12.46;82.95;99331.28;2064033;28;20042;-75
2022/09/18 03:41:52;;;;;;;4.03;2.15;;;;;;;12.48;82.68;99337.13;2064703;28;20038;-75
2022/09/18 03:42:55;;;;;;;3.00;1.73;;;;;;;12.50;82.86;99334.91;2063505;28;20042;-75
2022/09/18 03:44:02;;;;;;;2.67;1.90;;;;;;;12.51;82.87;99336.50;2055181;28;20046;-74
2022/09/18 03:45:11;;;;;;;3.10;1.65;;;;;;;12.51;82.83;99331.91;2056650;28;20041;-75
2022/09/18 03:46:13;;;;;;;3.05;1.58;;;;;;;12.52;82.93;99330.00;2064295;28;20689;-75
2022/09/18 03:47:20;;;;;;;3.45;1.83;;;;;;;12.53;82.92;99334.28;2063947;28;20034;-75
2022/09/18 03:48:26;;;;;;;;;;;;;;;12.53;82.65;99334.28;2065397;28;20142;-75
2022/09/18 03:49:28;;;;;;;3.60;1.75;;;;;;;12.52;82.98;99338.88;2063693;28;19995;-76
2022/09/18 03:50:32;;;;;;;6.35;1.77;;;;;;;12.54;82.86;99333.16;2047615;28;20070;-75
2022/09/18 03:51:43;;;;;;;3.30;1.92;;;;;;;12.55;82.91;99337.44;2057769;28;20047;-75
2022/09/18 03:52:50;;;;;;;5.05;1.65;;;;;;;12.56;82.97;99333.63;2047626;29;20060;-76
2022/09/18 03:54:18;;;;;;;3.03;1.73;;;;;;;12.58;82.97;99336.81;2055337;28;20065;-75
2022/09/18 03:55:55;;;;;;;2.38;1.52;;;;;;;12.57;83.03;99335.22;2036418;29;20035;-74
2022/09/18 03:57:26;;;;;;;2.58;1.52;;;;;;;12.55;82.93;99342.84;2018866;29;20079;-72
2022/09/18 03:58:44;;;;;;;2.92;1.70;;;;;;;12.54;82.97;99330.47;2055099;28;20046;-73
2022/09/18 03:59:56;;;;;;;4.18;1.60;;;;;;;12.57;82.97;99337.13;2070940;28;20041;-73
2022/09/18 04:00:58;;;;;;;4.63;1.55;;;;;;;12.57;82.91;99340.59;2063487;28;20141;-73
2022/09/18 04:02:10;;;;;;;4.47;1.65;;;;;;;12.57;83.00;99343.28;2057031;28;20038;-72
2022/09/18 04:03:33;;;;;;;2.13;1.60;;;;;;;12.59;82.84;99338.38;2071629;28;20046;-71
2022/09/18 04:04:58;;;;;;;2.65;1.65;;;;;;;12.61;82.79;99343.44;2065045;28;20053;-73
2022/09/18 04:06:22;;;;;;;2.25;1.60;;;;;;;12.56;82.92;99343.63;2063483;28;20394;-72
2022/09/18 04:07:41;;;;;;;;;;;;;;;12.54;82.97;99341.25;2071027;28;20034;-73
2022/09/18 04:09:15;;;;;;;2.95;1.75;;;;;;;12.50;82.92;99337.59;2066519;28;19914;-73
2022/09/18 04:10:25;;;;;;;2.70;1.73;;;;;;;12.44;83.32;99341.59;2046992;28;20039;-73
2022/09/18 04:11:28;;;;;;;3.00;1.65;;;;;;;12.43;83.38;99345.41;2047332;28;20038;-73
2022/09/18 04:12:32;;;;;;;2.72;1.70;;;;;;;12.44;83.28;99350.47;2055455;28;20051;-73
2022/09/18 04:13:50;;;;;;;2.05;1.60;;;;;;;12.47;83.38;99351.72;2049942;28;20408;-73
2022/09/18 04:14:56;;;;;;;3.40;1.65;;;;;;;12.48;83.38;99343.34;2056070;28;20479;-73
2022/09/18 04:15:58;;;;;;;3.47;1.92;;;;;;;12.49;83.31;99349.53;2055653;28;20533;-71
2022/09/18 04:17:06;;;;;;;2.50;1.85;;;;;;;12.51;83.34;99347.28;2039941;29;20036;-73
2022/09/18 04:18:11;;;;;;;3.33;1.85;;;;;;;12.50;83.13;99348.41;2041037;29;20047;-74
2022/09/18 04:19:15;;;;;;;2.50;1.67;;;;;;;12.48;83.40;99350.59;2032454;29;20052;-73
2022/09/18 04:20:20;;;;;;;3.38;2.00;;;;;;;12.49;83.43;99349.53;2041350;28;20043;-75
2022/09/18 04:21:27;;;;;;;3.15;1.73;;;;;;;12.51;83.45;99347.28;2047969;28;20055;-75
2022/09/18 04:22:31;;;;;;;2.75;1.52;;;;;;;12.50;83.55;99345.69;2047954;28;20404;-72
2022/09/18 04:23:34;;;;;;;2.53;1.33;;;;;;;12.49;83.35;99350.31;2047795;28;20554;-71
2022/09/18 04:24:38;;;;;;;2.45;1.45;;;;;;;12.48;83.25;99351.44;2047537;28;20051;-71
2022/09/18 04:25:43;;;;;;;1.80;1.50;;;;;;;12.49;83.35;99349.53;2039815;29;20047;-72
2022/09/18 04:26:48;;;;;;;3.40;1.60;;;;;;;12.50;83.28;99356.47;2032610;29;20051;-72
2022/09/18 04:27:53;;;;;;;2.65;1.50;;;;;;;12.51;83.28;99352.66;2057404;28;20038;-73
2022/09/18 04:29:00;;;;;;;2.70;1.40;;;;;;;12.48;83.45;99354.13;2063589;28;20038;-73
2022/09/18 04:30:07;;;;;;;3.42;1.60;;;;;;;12.50;83.24;99357.28;2064238;28;20050;-72
2022/09/18 04:31:17;;;;;;;5.35;1.70;;;;;;;12.50;83.31;99356.47;2069185;28;20789;-72
2022/09/18 04:32:21;;;;;;;2.22;1.70;;;;;;;12.49;83.21;99354.91;2066552;28;20042;-73
2022/09/18 04:33:25;;;;;;;3.83;1.65;;;;;;;12.44;83.41;99353.16;2054523;28;20047;-71
2022/09/18 04:34:30;;;;;;;3.95;1.45;;;;;;;12.44;83.50;99350.47;2038605;29;20048;-72
2022/09/18 04:35:33;;;;;;;2.28;1.75;;;;;;;12.46;83.42;99350.16;2047311;28;20078;-71
2022/09/18 04:36:40;;;;;;;2.35;1.60;;;;;;;12.48;83.39;99348.72;2045904;29;20063;-72
2022/09/18 04:37:45;;;;;;;2.53;1.55;;;;;;;12.50;83.26;99351.88;2031873;29;20056;-71
2022/09/18 04:38:49;;;;;;;2.30;1.70;;;;;;;12.52;83.31;99354.28;2042695;28;20436;-71
2022/09/18 04:39:53;;;;;;;5.80;1.55;;;;;;;12.55;83.14;99359.03;2055699;28;20046;-71
2022/09/18 04:40:58;;;;;;;2.35;1.55;;;;;;;12.57;83.34;99356.00;2056009;28;20054;-71
2022/09/18 04:42:02;;;;;;;3.35;1.85;;;;;;;12.59;83.27;99359.97;2056395;28;20039;-71
2022/09/18 04:43:09;;;;;;;3.05;1.80;;;;;;;12.60;83.24;99361.53;2054650;28;20430;-72
2022/09/18 04:44:13;;;;;;;2.63;1.85;;;;;;;12.61;83.31;99356.94;2056340;28;20046;-71
2022/09/18 04:45:19;;;;;;;4.10;2.20;;;;;;;12.63;83.29;99360.88;2056478;28;20101;-72
2022/09/18 04:46:33;;;;;;;2.92;1.98;;;;;;;12.60;83.23;99356.13;2049258;28;20487;-72
2022/09/18 04:47:40;;;;;;;3.05;1.60;;;;;;;12.63;83.42;99368.97;2050128;28;20043;-71
2022/09/18 04:48:48;;;;;;;3.65;1.60;;;;;;;12.66;83.22;99359.47;2055964;28;20053;-69
2022/09/18 04:49:57;;;;;;;3.05;1.40;;;;;;;12.67;83.30;99356.47;2047963;28;20144;-72
2022/09/18 04:51:06;;;;;;;2.42;1.50;;;;;;;12.70;83.20;99363.91;2050228;28;20062;-72
2022/09/18 04:52:20;;;;;;;3.08;1.45;;;;;;;12.72;83.07;99364.34;2050032;28;20051;-71
2022/09/18 04:53:27;;;;;;;2.85;1.60;;;;;;;12.71;83.22;99368.19;2049790;28;20550;-72
2022/09/18 04:54:36;;;;;;;2.67;1.48;;;;;;;12.74;83.21;99362.13;2048521;28;20055;-71
2022/09/18 04:55:44;;;;;;;3.13;1.60;;;;;;;12.78;83.15;99364.19;2071572;28;20050;-72
2022/09/18 04:56:48;;;;;;;3.20;1.75;;;;;;;12.76;83.02;99362.59;2070878;28;20045;-72
2022/09/18 04:57:50;;;;;;;5.35;1.60;;;;;;;12.79;82.97;99361.16;2059110;28;20041;-72
2022/09/18 04:58:56;;;;;;;2.90;1.50;;;;;;;12.80;83.16;99365.47;2062451;28;20062;-71
2022/09/18 05:00:07;;;;;;;3.85;1.73;;;;;;;12.79;83.13;99365.78;2056281;28;20066;-72
2022/09/18 05:01:09;;;;;;;2.70;1.50;;;;;;;12.82;83.15;99370.53;2064450;28;20407;-70
2022/09/18 05:02:11;;;;;;;3.05;1.70;;;;;;;12.81;83.03;99367.03;2063587;28;20042;-71
2022/09/18 05:03:18;;;;;;;1.52;1.20;;;;;;;12.84;82.99;99371.78;2063922;28;20482;-71
2022/09/18 05:04:26;;;;;;;1.75;1.17;;;;;;;12.85;82.92;99367.97;2071837;28;20042;-71
2022/09/18 05:05:41;;;;;;;2.90;1.40;;;;;;;12.89;82.88;99374.31;2071477;28;20050;-71
2022/09/18 05:06:48;;;;;;;1.50;1.25;;;;;;;12.88;82.85;99377.31;2062563;28;20046;-71
2022/09/18 05:07:54;;;;;;;2.50;1.30;;;;;;;12.89;83.01;99373.50;2064471;28;20042;-71
2022/09/18 05:08:58;;;;;;;2.33;1.30;;;;;;;12.91;82.64;99374.78;2059564;28;20081;-72
2022/09/18 05:10:01;;;;;;;3.35;1.55;;;;;;;12.94;82.79;99378.72;2055709;28;20041;-71
2022/09/18 05:11:08;;;;;;;3.10;1.42;;;;;;;12.95;82.87;99383.00;2054864;28;20066;-71
2022/09/18 05:12:13;;;;;;;3.35;1.50;;;;;;;12.96;82.76;99379.22;2048022;28;20054;-69
2022/09/18 05:13:18;;;;;;;4.00;1.50;;;;;;;12.97;82.87;99370.00;2047548;28;20443;-70
2022/09/18 05:14:33;;;;;;;4.15;1.48;;;;;;;12.97;82.80;99375.41;2055614;28;20043;-70
2022/09/18 05:15:38;;;;;;;3.05;1.33;;;;;;;12.98;82.85;99376.97;2048048;28;20039;-70
2022/09/18 05:16:46;;;;;;;2.65;1.63;;;;;;;12.93;83.00;99375.25;2048245;28;20050;-71
2022/09/18 05:18:13;;;;;;;2.85;1.33;;;;;;;12.95;82.90;99374.91;2050215;28;20455;-70
2022/09/18 05:19:20;;;;;;;2.20;1.48;;;;;;;12.91;82.77;99371.28;2048988;28;20065;-70
2022/09/18 05:20:26;;;;;;;4.13;1.58;;;;;;;12.93;82.85;99386.03;2056457;28;20054;-71
2022/09/18 05:21:34;;;;;;;3.72;1.48;;;;;;;12.94;82.86;99384.13;2047578;28;20684;-71
2022/09/18 05:22:41;;;;;;;2.00;1.30;;;;;;;12.96;82.97;99379.22;2041674;28;20113;-71
2022/09/18 05:23:46;;;;;;;3.10;1.50;;;;;;;12.96;82.73;99384.59;2041964;28;20700;-72
2022/09/18 05:24:51;;;;;;;2.75;1.40;;;;;;;12.97;82.89;99383.50;2048385;28;20122;-69
2022/09/18 05:25:53;;;;;;;3.78;1.60;;;;;;;12.98;82.84;99387.75;2055562;28;20046;-71
2022/09/18 05:27:00;;;;;;;3.60;1.45;;;;;;;12.97;82.70;99383.50;2048008;28;20110;-71
2022/09/18 05:28:07;;;;;;;2.03;1.40;;;;;;;12.99;82.74;99383.97;2048215;28;20047;-71
2022/09/18 05:29:20;;;;;;;1.90;1.40;;;;;;;12.99;82.68;99384.75;2049442;28;20055;-71
2022/09/18 05:30:25;;;;;;;2.63;1.55;;;;;;;13.01;82.61;99387.13;2041514;28;20145;-72
2022/09/18 05:31:32;;;;;;;;;;;;;;;13.02;82.68;99383.31;2052898;28;20050;-71